sensor_id;sensor_type;location;lat;lon;timestamp;pressure;altitude;pressure_sealevel;temperature
27826;BMP280;15077;49.704;9.908;2023-04-08T00:00:10;98403.25;;;12.43
27826;BMP280;15077;49.704;9.908;2023-04-08T00:02:36;98408.47;;;12.40
27826;BMP280;15077;49.704;9.908;2023-04-08T00:05:02;98407.72;;;12.38
27826;BMP280;15077;49.704;9.908;2023-04-08T00:07:28;98401.09;;;12.34
27826;BMP280;15077;49.704;9.908;2023-04-08T00:09:53;98406.31;;;12.31
27826;BMP280;15077;49.704;9.908;2023-04-08T00:12:20;98406.44;;;12.28
27826;BMP280;15077;49.704;9.908;2023-04-08T00:14:46;98409.09;;;12.25
27826;BMP280;15077;49.704;9.908;2023-04-08T00:17:12;98400.88;;;12.20
27826;BMP280;15077;49.704;9.908;2023-04-08T00:19:37;98411.91;;;12.19
27826;BMP280;15077;49.704;9.908;2023-04-08T00:22:03;98413.75;;;12.15
27826;BMP280;15077;49.704;9.908;2023-04-08T00:24:31;98413.00;;;12.13
27826;BMP280;15077;49.704;9.908;2023-04-08T00:26:58;98411.41;;;12.11
27826;BMP280;15077;49.704;9.908;2023-04-08T00:29:27;98414.09;;;12.08
27826;BMP280;15077;49.704;9.908;2023-04-08T00:31:57;98417.50;;;12.07
27826;BMP280;15077;49.704;9.908;2023-04-08T00:34:24;98415.16;;;12.03
27826;BMP280;15077;49.704;9.908;2023-04-08T00:36:49;98426.28;;;12.00
27826;BMP280;15077;49.704;9.908;2023-04-08T00:39:18;98417.94;;;11.97
27826;BMP280;15077;49.704;9.908;2023-04-08T00:41:44;98426.50;;;11.94
27826;BMP280;15077;49.704;9.908;2023-04-08T00:44:10;98424.94;;;11.92
27826;BMP280;15077;49.704;9.908;2023-04-08T00:46:38;98427.53;;;11.90
27826;BMP280;15077;49.704;9.908;2023-04-08T00:49:05;98434.38;;;11.88
27826;BMP280;15077;49.704;9.908;2023-04-08T00:51:33;98430.31;;;11.84
27826;BMP280;15077;49.704;9.908;2023-04-08T00:54:02;98427.00;;;11.82
27826;BMP280;15077;49.704;9.908;2023-04-08T00:56:31;98427.97;;;11.80
27826;BMP280;15077;49.704;9.908;2023-04-08T00:58:59;98432.25;;;11.78
27826;BMP280;15077;49.704;9.908;2023-04-08T01:05:04;98434.47;;;11.65
27826;BMP280;15077;49.704;9.908;2023-04-08T01:07:34;98437.88;;;11.64
27826;BMP280;15077;49.704;9.908;2023-04-08T01:10:26;98431.41;;;11.58
27826;BMP280;15077;49.704;9.908;2023-04-08T01:13:04;98434.84;;;11.57
27826;BMP280;15077;49.704;9.908;2023-04-08T01:15:39;98431.47;;;11.56
27826;BMP280;15077;49.704;9.908;2023-04-08T01:18:10;98427.41;;;11.52
27826;BMP280;15077;49.704;9.908;2023-04-08T01:20:39;98438.44;;;11.51
27826;BMP280;15077;49.704;9.908;2023-04-08T01:26:00;98433.63;;;11.44
27826;BMP280;15077;49.704;9.908;2023-04-08T01:28:30;98433.63;;;11.44
27826;BMP280;15077;49.704;9.908;2023-04-08T01:31:01;98431.19;;;11.41
27826;BMP280;15077;49.704;9.908;2023-04-08T01:33:30;98434.66;;;11.38
27826;BMP280;15077;49.704;9.908;2023-04-08T01:36:00;98428.03;;;11.36
27826;BMP280;15077;49.704;9.908;2023-04-08T01:38:30;98433.22;;;11.33
27826;BMP280;15077;49.704;9.908;2023-04-08T01:40:58;98427.34;;;11.31
27826;BMP280;15077;49.704;9.908;2023-04-08T01:43:31;98430.78;;;11.30
27826;BMP280;15077;49.704;9.908;2023-04-08T01:46:00;98435.97;;;11.27
27826;BMP280;15077;49.704;9.908;2023-04-08T01:48:29;98428.44;;;11.25
27826;BMP280;15077;49.704;9.908;2023-04-08T01:51:02;98431.03;;;11.24
27826;BMP280;15077;49.704;9.908;2023-04-08T01:53:29;98419.34;;;11.20
27826;BMP280;15077;49.704;9.908;2023-04-08T01:56:03;98425.34;;;11.17
27826;BMP280;15077;49.704;9.908;2023-04-08T01:58:37;98421.34;;;11.12
27826;BMP280;15077;49.704;9.908;2023-04-08T02:01:13;98429.94;;;11.08
27826;BMP280;15077;49.704;9.908;2023-04-08T02:03:46;98421.56;;;11.06
27826;BMP280;15077;49.704;9.908;2023-04-08T02:06:14;98427.56;;;11.04
27826;BMP280;15077;49.704;9.908;2023-04-08T02:08:40;98423.38;;;11.03
27826;BMP280;15077;49.704;9.908;2023-04-08T02:11:06;98426.03;;;11.00
27826;BMP280;15077;49.704;9.908;2023-04-08T02:13:32;98422.72;;;10.98
27826;BMP280;15077;49.704;9.908;2023-04-08T02:16:30;98421.22;;;10.92
27826;BMP280;15077;49.704;9.908;2023-04-08T02:19:31;98422.09;;;10.91
27826;BMP280;15077;49.704;9.908;2023-04-08T02:22:06;98420.59;;;10.87
27826;BMP280;15077;49.704;9.908;2023-04-08T02:24:40;98418.88;;;10.88
27826;BMP280;15077;49.704;9.908;2023-04-08T02:27:13;98427.34;;;10.87
27826;BMP280;15077;49.704;9.908;2023-04-08T02:29:41;98433.31;;;10.86
27826;BMP280;15077;49.704;9.908;2023-04-08T02:32:10;98429.06;;;10.86
27826;BMP280;15077;49.704;9.908;2023-04-08T02:34:41;98429.94;;;10.85
27826;BMP280;15077;49.704;9.908;2023-04-08T02:37:18;98434.25;;;10.83
27826;BMP280;15077;49.704;9.908;2023-04-08T02:39:54;98434.38;;;10.80
27826;BMP280;15077;49.704;9.908;2023-04-08T02:42:47;98435.28;;;10.78
27826;BMP280;15077;49.704;9.908;2023-04-08T02:45:15;98434.53;;;10.76
27826;BMP280;15077;49.704;9.908;2023-04-08T02:47:43;98441.31;;;10.75
27826;BMP280;15077;49.704;9.908;2023-04-08T02:50:11;98439.66;;;10.74
27826;BMP280;15077;49.704;9.908;2023-04-08T02:52:39;98438.03;;;10.72
27826;BMP280;15077;49.704;9.908;2023-04-08T02:55:05;98445.75;;;10.69
27826;BMP280;15077;49.704;9.908;2023-04-08T02:57:41;98444.06;;;10.69
27826;BMP280;15077;49.704;9.908;2023-04-08T03:00:15;98441.59;;;10.68
27826;BMP280;15077;49.704;9.908;2023-04-08T03:02:50;98451.78;;;10.66
27826;BMP280;15077;49.704;9.908;2023-04-08T03:05:26;98443.38;;;10.64
27826;BMP280;15077;49.704;9.908;2023-04-08T03:07:53;98452.72;;;10.64
27826;BMP280;15077;49.704;9.908;2023-04-08T03:10:20;98453.63;;;10.62
27826;BMP280;15077;49.704;9.908;2023-04-08T03:12:48;98452.00;;;10.61
27826;BMP280;15077;49.704;9.908;2023-04-08T03:15:14;98443.59;;;10.59
27826;BMP280;15077;49.704;9.908;2023-04-08T03:17:42;98455.41;;;10.60
27826;BMP280;15077;49.704;9.908;2023-04-08T03:20:09;98458.88;;;10.57
27826;BMP280;15077;49.704;9.908;2023-04-08T03:22:36;98466.47;;;10.57
27826;BMP280;15077;49.704;9.908;2023-04-08T03:25:05;98466.47;;;10.57
27826;BMP280;15077;49.704;9.908;2023-04-08T03:27:31;98458.91;;;10.56
27826;BMP280;15077;49.704;9.908;2023-04-08T03:30:02;98465.66;;;10.57
27826;BMP280;15077;49.704;9.908;2023-04-08T03:32:28;98463.22;;;10.54
27826;BMP280;15077;49.704;9.908;2023-04-08T03:34:54;98463.28;;;10.52
27826;BMP280;15077;49.704;9.908;2023-04-08T03:37:22;98462.44;;;10.52
27826;BMP280;15077;49.704;9.908;2023-04-08T03:39:47;98463.31;;;10.51
27826;BMP280;15077;49.704;9.908;2023-04-08T03:42:13;98464.19;;;10.50
27826;BMP280;15077;49.704;9.908;2023-04-08T03:44:39;98465.06;;;10.49
27826;BMP280;15077;49.704;9.908;2023-04-08T03:47:05;98464.31;;;10.47
27826;BMP280;15077;49.704;9.908;2023-04-08T03:49:31;98461.81;;;10.45
27826;BMP280;15077;49.704;9.908;2023-04-08T03:51:56;98461.00;;;10.45
27826;BMP280;15077;49.704;9.908;2023-04-08T03:54:23;98448.38;;;10.43
27826;BMP280;15077;49.704;9.908;2023-04-08T03:56:49;98452.59;;;10.43
27826;BMP280;15077;49.704;9.908;2023-04-08T03:59:15;98456.03;;;10.42
27826;BMP280;15077;49.704;9.908;2023-04-08T04:01:41;98459.44;;;10.41
27826;BMP280;15077;49.704;9.908;2023-04-08T04:04:07;98461.22;;;10.39
27826;BMP280;15077;49.704;9.908;2023-04-08T04:06:32;98465.50;;;10.37
27826;BMP280;15077;49.704;9.908;2023-04-08T04:08:58;98467.22;;;10.36
27826;BMP280;15077;49.704;9.908;2023-04-08T04:11:25;98464.72;;;10.35
27826;BMP280;15077;49.704;9.908;2023-04-08T04:13:54;98468.13;;;10.34
27826;BMP280;15077;49.704;9.908;2023-04-08T04:16:20;98469.91;;;10.32
27826;BMP280;15077;49.704;9.908;2023-04-08T04:18:46;98475.81;;;10.31
27826;BMP280;15077;49.704;9.908;2023-04-08T04:21:12;98471.66;;;10.30
27826;BMP280;15077;49.704;9.908;2023-04-08T04:23:37;98477.59;;;10.29
27826;BMP280;15077;49.704;9.908;2023-04-08T04:26:10;98475.88;;;10.29
27826;BMP280;15077;49.704;9.908;2023-04-08T04:28:37;98483.53;;;10.28
27826;BMP280;15077;49.704;9.908;2023-04-08T04:31:04;98474.28;;;10.27
27826;BMP280;15077;49.704;9.908;2023-04-08T04:33:30;98487.00;;;10.25
27826;BMP280;15077;49.704;9.908;2023-04-08T04:35:56;98477.75;;;10.24
27826;BMP280;15077;49.704;9.908;2023-04-08T04:38:22;98493.00;;;10.23
27826;BMP280;15077;49.704;9.908;2023-04-08T04:40:48;98487.94;;;10.23
27826;BMP280;15077;49.704;9.908;2023-04-08T04:43:13;98499.78;;;10.22
27826;BMP280;15077;49.704;9.908;2023-04-08T04:45:39;98493.88;;;10.22
27826;BMP280;15077;49.704;9.908;2023-04-08T04:48:05;98493.91;;;10.20
27826;BMP280;15077;49.704;9.908;2023-04-08T04:50:31;98489.66;;;10.22
27826;BMP280;15077;49.704;9.908;2023-04-08T04:52:57;98483.78;;;10.20
27826;BMP280;15077;49.704;9.908;2023-04-08T04:55:22;98482.16;;;10.19
27826;BMP280;15077;49.704;9.908;2023-04-08T04:57:48;98487.28;;;10.18
27826;BMP280;15077;49.704;9.908;2023-04-08T05:00:15;98490.66;;;10.17
27826;BMP280;15077;49.704;9.908;2023-04-08T05:02:41;98491.50;;;10.17
27826;BMP280;15077;49.704;9.908;2023-04-08T05:05:07;98497.41;;;10.18
27826;BMP280;15077;49.704;9.908;2023-04-08T05:07:37;98491.44;;;10.19
27826;BMP280;15077;49.704;9.908;2023-04-08T05:10:04;98498.22;;;10.18
27826;BMP280;15077;49.704;9.908;2023-04-08T05:12:33;98496.50;;;10.19
27826;BMP280;15077;49.704;9.908;2023-04-08T05:14:59;98498.16;;;10.20
27826;BMP280;15077;49.704;9.908;2023-04-08T05:17:25;98501.50;;;10.20
27826;BMP280;15077;49.704;9.908;2023-04-08T05:19:51;98502.25;;;10.24
27826;BMP280;15077;49.704;9.908;2023-04-08T05:22:18;98513.22;;;10.24
27826;BMP280;15077;49.704;9.908;2023-04-08T05:24:43;98507.28;;;10.25
27826;BMP280;15077;49.704;9.908;2023-04-08T05:27:09;98516.50;;;10.26
27826;BMP280;15077;49.704;9.908;2023-04-08T05:29:35;98521.53;;;10.28
27826;BMP280;15077;49.704;9.908;2023-04-08T05:32:01;98518.13;;;10.29
27826;BMP280;15077;49.704;9.908;2023-04-08T05:34:26;98523.97;;;10.31
27826;BMP280;15077;49.704;9.908;2023-04-08T05:36:52;98517.16;;;10.33
27826;BMP280;15077;49.704;9.908;2023-04-08T05:39:19;98516.25;;;10.34
27826;BMP280;15077;49.704;9.908;2023-04-08T05:41:45;98518.69;;;10.37
27826;BMP280;15077;49.704;9.908;2023-04-08T05:44:12;98523.72;;;10.38
27826;BMP280;15077;49.704;9.908;2023-04-08T05:46:38;98516.09;;;10.38
27826;BMP280;15077;49.704;9.908;2023-04-08T05:49:04;98521.13;;;10.40
27826;BMP280;15077;49.704;9.908;2023-04-08T05:51:30;98529.56;;;10.40
27826;BMP280;15077;49.704;9.908;2023-04-08T05:53:56;98521.94;;;10.42
27826;BMP280;15077;49.704;9.908;2023-04-08T05:56:22;98533.69;;;10.43
27826;BMP280;15077;49.704;9.908;2023-04-08T05:58:47;98531.97;;;10.45
27826;BMP280;15077;49.704;9.908;2023-04-08T06:01:13;98542.88;;;10.47
27826;BMP280;15077;49.704;9.908;2023-04-08T06:03:39;98538.56;;;10.49
27826;BMP280;15077;49.704;9.908;2023-04-08T06:06:11;98550.25;;;10.53
27826;BMP280;15077;49.704;9.908;2023-04-08T06:08:37;98551.06;;;10.53
27826;BMP280;15077;49.704;9.908;2023-04-08T06:11:02;98548.41;;;10.58
27826;BMP280;15077;49.704;9.908;2023-04-08T06:13:31;98544.94;;;10.60
27826;BMP280;15077;49.704;9.908;2023-04-08T06:15:57;98559.19;;;10.64
27826;BMP280;15077;49.704;9.908;2023-04-08T06:18:23;98550.66;;;10.66
27826;BMP280;15077;49.704;9.908;2023-04-08T06:20:49;98553.09;;;10.69
27826;BMP280;15077;49.704;9.908;2023-04-08T06:23:15;98560.59;;;10.72
27826;BMP280;15077;49.704;9.908;2023-04-08T06:25:41;98563.00;;;10.75
27826;BMP280;15077;49.704;9.908;2023-04-08T06:28:07;98562.91;;;10.78
27826;BMP280;15077;49.704;9.908;2023-04-08T06:30:33;98567.03;;;10.81
27826;BMP280;15077;49.704;9.908;2023-04-08T06:32:58;98561.84;;;10.84
27826;BMP280;15077;49.704;9.908;2023-04-08T06:35:24;98561.69;;;10.88
27826;BMP280;15077;49.704;9.908;2023-04-08T06:37:50;98570.03;;;10.92
27826;BMP280;15077;49.704;9.908;2023-04-08T06:40:16;98569.09;;;10.94
27826;BMP280;15077;49.704;9.908;2023-04-08T06:42:41;98570.66;;;10.98
27826;BMP280;15077;49.704;9.908;2023-04-08T06:45:09;98573.03;;;11.03
27826;BMP280;15077;49.704;9.908;2023-04-08T06:47:35;98567.84;;;11.06
27826;BMP280;15077;49.704;9.908;2023-04-08T06:50:01;98568.69;;;11.06
27826;BMP280;15077;49.704;9.908;2023-04-08T06:52:27;98576.19;;;11.09
27826;BMP280;15077;49.704;9.908;2023-04-08T06:54:53;98573.59;;;11.11
27826;BMP280;15077;49.704;9.908;2023-04-08T06:57:18;98578.63;;;11.12
27826;BMP280;15077;49.704;9.908;2023-04-08T06:59:44;98585.28;;;11.14
27826;BMP280;15077;49.704;9.908;2023-04-08T07:02:11;98591.19;;;11.15
27826;BMP280;15077;49.704;9.908;2023-04-08T07:04:38;98592.78;;;11.17
27826;BMP280;15077;49.704;9.908;2023-04-08T07:07:04;98597.03;;;11.17
27826;BMP280;15077;49.704;9.908;2023-04-08T07:09:29;98599.59;;;11.17
27826;BMP280;15077;49.704;9.908;2023-04-08T07:11:55;98599.53;;;11.18
27826;BMP280;15077;49.704;9.908;2023-04-08T07:14:22;98607.09;;;11.20
27826;BMP280;15077;49.704;9.908;2023-04-08T07:16:47;98607.03;;;11.21
27826;BMP280;15077;49.704;9.908;2023-04-08T07:19:13;98607.78;;;11.23
27826;BMP280;15077;49.704;9.908;2023-04-08T07:21:39;98607.75;;;11.25
27826;BMP280;15077;49.704;9.908;2023-04-08T07:24:05;98611.06;;;11.27
27826;BMP280;15077;49.704;9.908;2023-04-08T07:26:30;98606.75;;;11.29
27826;BMP280;15077;49.704;9.908;2023-04-08T07:28:56;98615.94;;;11.33
27826;BMP280;15077;49.704;9.908;2023-04-08T07:31:22;98618.34;;;11.36
27826;BMP280;15077;49.704;9.908;2023-04-08T07:33:47;98617.41;;;11.38
27826;BMP280;15077;49.704;9.908;2023-04-08T07:36:13;98623.22;;;11.42
27826;BMP280;15077;49.704;9.908;2023-04-08T07:38:40;98615.50;;;11.45
27826;BMP280;15077;49.704;9.908;2023-04-08T07:41:06;98623.78;;;11.50
27826;BMP280;15077;49.704;9.908;2023-04-08T07:43:32;98628.75;;;11.53
27826;BMP280;15077;49.704;9.908;2023-04-08T07:46:05;98617.69;;;11.55
27826;BMP280;15077;49.704;9.908;2023-04-08T07:48:32;98622.69;;;11.57
27826;BMP280;15077;49.704;9.908;2023-04-08T07:51:03;98621.81;;;11.58
27826;BMP280;15077;49.704;9.908;2023-04-08T07:53:29;98626.84;;;11.59
27826;BMP280;15077;49.704;9.908;2023-04-08T07:55:55;98626.75;;;11.62
27826;BMP280;15077;49.704;9.908;2023-04-08T07:58:21;98631.66;;;11.66
27826;BMP280;15077;49.704;9.908;2023-04-08T08:00:47;98638.31;;;11.69
27826;BMP280;15077;49.704;9.908;2023-04-08T08:03:12;98642.44;;;11.71
27826;BMP280;15077;49.704;9.908;2023-04-08T08:05:38;98646.59;;;11.74
27826;BMP280;15077;49.704;9.908;2023-04-08T08:08:04;98644.00;;;11.75
27826;BMP280;15077;49.704;9.908;2023-04-08T08:10:33;98647.31;;;11.77
27826;BMP280;15077;49.704;9.908;2023-04-08T08:12:58;98643.03;;;11.78
27826;BMP280;15077;49.704;9.908;2023-04-08T08:15:24;98648.06;;;11.79
27826;BMP280;15077;49.704;9.908;2023-04-08T08:17:50;98637.78;;;11.82
27826;BMP280;15077;49.704;9.908;2023-04-08T08:20:15;98641.13;;;11.84
27826;BMP280;15077;49.704;9.908;2023-04-08T08:22:41;98641.84;;;11.88
27826;BMP280;15077;49.704;9.908;2023-04-08T08:25:09;98646.84;;;11.89
27826;BMP280;15077;49.704;9.908;2023-04-08T08:27:34;98650.22;;;11.90
27826;BMP280;15077;49.704;9.908;2023-04-08T08:30:02;98649.22;;;11.94
27826;BMP280;15077;49.704;9.908;2023-04-08T08:32:28;98644.97;;;11.94
27826;BMP280;15077;49.704;9.908;2023-04-08T08:34:54;98648.28;;;11.96
27826;BMP280;15077;49.704;9.908;2023-04-08T08:37:20;98658.34;;;11.99
27826;BMP280;15077;49.704;9.908;2023-04-08T08:39:45;98661.66;;;12.01
27826;BMP280;15077;49.704;9.908;2023-04-08T08:42:22;98663.19;;;12.05
27826;BMP280;15077;49.704;9.908;2023-04-08T08:44:48;98668.16;;;12.08
27826;BMP280;15077;49.704;9.908;2023-04-08T08:47:15;98670.53;;;12.12
27826;BMP280;15077;49.704;9.908;2023-04-08T08:49:43;98672.13;;;12.15
27826;BMP280;15077;49.704;9.908;2023-04-08T08:52:09;98675.44;;;12.17
27826;BMP280;15077;49.704;9.908;2023-04-08T08:54:36;98677.88;;;12.20
27826;BMP280;15077;49.704;9.908;2023-04-08T08:57:03;98675.25;;;12.21
27826;BMP280;15077;49.704;9.908;2023-04-08T08:59:28;98679.53;;;12.21
27826;BMP280;15077;49.704;9.908;2023-04-08T09:01:54;98671.00;;;12.22
27826;BMP280;15077;49.704;9.908;2023-04-08T09:04:20;98685.38;;;12.23
27826;BMP280;15077;49.704;9.908;2023-04-08T09:06:49;98681.03;;;12.25
27826;BMP280;15077;49.704;9.908;2023-04-08T09:09:16;98682.47;;;12.32
27826;BMP280;15077;49.704;9.908;2023-04-08T09:11:46;98687.44;;;12.35
27826;BMP280;15077;49.704;9.908;2023-04-08T09:14:24;98690.97;;;12.31
27826;BMP280;15077;49.704;9.908;2023-04-08T09:16:51;98686.75;;;12.31
27826;BMP280;15077;49.704;9.908;2023-04-08T09:19:18;98690.16;;;12.30
27826;BMP280;15077;49.704;9.908;2023-04-08T09:21:43;98695.25;;;12.30
27826;BMP280;15077;49.704;9.908;2023-04-08T09:24:27;98691.88;;;12.30
27826;BMP280;15077;49.704;9.908;2023-04-08T09:26:53;98688.44;;;12.31
27826;BMP280;15077;49.704;9.908;2023-04-08T09:29:23;98684.16;;;12.33
27826;BMP280;15077;49.704;9.908;2023-04-08T09:31:54;98685.78;;;12.34
27826;BMP280;15077;49.704;9.908;2023-04-08T09:34:24;98693.34;;;12.35
27826;BMP280;15077;49.704;9.908;2023-04-08T09:36:52;98695.78;;;12.38
27826;BMP280;15077;49.704;9.908;2023-04-08T09:39:19;98694.78;;;12.42
27826;BMP280;15077;49.704;9.908;2023-04-08T09:41:49;98691.94;;;12.50
27826;BMP280;15077;49.704;9.908;2023-04-08T09:44:17;98692.63;;;12.55
27826;BMP280;15077;49.704;9.908;2023-04-08T09:49:28;98699.75;;;12.66
27826;BMP280;15077;49.704;9.908;2023-04-08T09:52:09;98708.78;;;12.73
27826;BMP280;15077;49.704;9.908;2023-04-08T09:55:07;98706.97;;;12.77
27826;BMP280;15077;49.704;9.908;2023-04-08T09:57:54;98709.13;;;12.87
27826;BMP280;15077;49.704;9.908;2023-04-08T10:00:30;98707.09;;;12.95
27826;BMP280;15077;49.704;9.908;2023-04-08T10:05:44;98711.53;;;13.10
27826;BMP280;15077;49.704;9.908;2023-04-08T10:08:12;98712.16;;;13.16
27826;BMP280;15077;49.704;9.908;2023-04-08T10:10:39;98705.81;;;13.25
27826;BMP280;15077;49.704;9.908;2023-04-08T10:13:06;98706.41;;;13.31
27826;BMP280;15077;49.704;9.908;2023-04-08T10:15:34;98704.31;;;13.41
27826;BMP280;15077;49.704;9.908;2023-04-08T10:23:00;98697.28;;;13.65
27826;BMP280;15077;49.704;9.908;2023-04-08T10:30:55;98695.13;;;13.95
27826;BMP280;15077;49.704;9.908;2023-04-08T10:33:42;98698.88;;;14.06
27826;BMP280;15077;49.704;9.908;2023-04-08T10:36:11;98696.81;;;14.14
27826;BMP280;15077;49.704;9.908;2023-04-08T10:38:38;98693.09;;;14.21
27826;BMP280;15077;49.704;9.908;2023-04-08T10:41:04;98698.78;;;14.26
27826;BMP280;15077;49.704;9.908;2023-04-08T10:43:34;98684.81;;;14.34
27826;BMP280;15077;49.704;9.908;2023-04-08T10:46:00;98690.44;;;14.41
27826;BMP280;15077;49.704;9.908;2023-04-08T10:48:26;98688.53;;;14.46
27826;BMP280;15077;49.704;9.908;2023-04-08T10:51:01;98679.81;;;14.50
27826;BMP280;15077;49.704;9.908;2023-04-08T10:53:27;98656.78;;;14.51
27826;BMP280;15077;49.704;9.908;2023-04-08T10:56:02;98664.34;;;14.53
27826;BMP280;15077;49.704;9.908;2023-04-08T10:58:29;98676.22;;;14.54
27826;BMP280;15077;49.704;9.908;2023-04-08T11:00:55;98664.28;;;14.54
27826;BMP280;15077;49.704;9.908;2023-04-08T11:03:21;98677.88;;;14.55
27826;BMP280;15077;49.704;9.908;2023-04-08T11:05:48;98680.38;;;14.56
27826;BMP280;15077;49.704;9.908;2023-04-08T11:08:14;98684.63;;;14.55
27826;BMP280;15077;49.704;9.908;2023-04-08T11:10:40;98680.38;;;14.56
27826;BMP280;15077;49.704;9.908;2023-04-08T11:13:08;98674.28;;;14.58
27826;BMP280;15077;49.704;9.908;2023-04-08T11:15:37;98691.25;;;14.59
27826;BMP280;15077;49.704;9.908;2023-04-08T11:18:04;98678.34;;;14.62
27826;BMP280;15077;49.704;9.908;2023-04-08T11:20:32;98677.44;;;14.63
27826;BMP280;15077;49.704;9.908;2023-04-08T11:23:00;98680.00;;;14.63
27826;BMP280;15077;49.704;9.908;2023-04-08T11:25:27;98696.13;;;14.64
27826;BMP280;15077;49.704;9.908;2023-04-08T11:27:53;98677.44;;;14.63
27826;BMP280;15077;49.704;9.908;2023-04-08T11:30:21;98680.66;;;14.67
27826;BMP280;15077;49.704;9.908;2023-04-08T11:32:47;98684.03;;;14.67
27826;BMP280;15077;49.704;9.908;2023-04-08T11:35:16;98686.59;;;14.67
27826;BMP280;15077;49.704;9.908;2023-04-08T11:37:42;98677.31;;;14.66
27826;BMP280;15077;49.704;9.908;2023-04-08T11:40:12;98672.13;;;14.68
27826;BMP280;15077;49.704;9.908;2023-04-08T11:42:38;98681.41;;;14.69
27826;BMP280;15077;49.704;9.908;2023-04-08T11:45:13;98676.09;;;14.73
27826;BMP280;15077;49.704;9.908;2023-04-08T11:47:41;98680.31;;;14.74
27826;BMP280;15077;49.704;9.908;2023-04-08T11:50:08;98676.72;;;14.78
27826;BMP280;15077;49.704;9.908;2023-04-08T11:53:00;98672.44;;;14.79
27826;BMP280;15077;49.704;9.908;2023-04-08T11:55:29;98674.63;;;14.86
27826;BMP280;15077;49.704;9.908;2023-04-08T11:58:00;98671.03;;;14.90
27826;BMP280;15077;49.704;9.908;2023-04-08T12:00:26;98674.31;;;14.92
27826;BMP280;15077;49.704;9.908;2023-04-08T12:02:52;98680.94;;;14.96
27826;BMP280;15077;49.704;9.908;2023-04-08T12:05:19;98678.97;;;15.01
27826;BMP280;15077;49.704;9.908;2023-04-08T12:07:46;98674.63;;;15.03
27826;BMP280;15077;49.704;9.908;2023-04-08T12:10:12;98678.66;;;15.07
27826;BMP280;15077;49.704;9.908;2023-04-08T12:12:39;98680.19;;;15.11
27826;BMP280;15077;49.704;9.908;2023-04-08T12:15:07;98683.31;;;15.16
27826;BMP280;15077;49.704;9.908;2023-04-08T12:17:34;98678.94;;;15.19
27826;BMP280;15077;49.704;9.908;2023-04-08T12:20:00;98681.25;;;15.24
27826;BMP280;15077;49.704;9.908;2023-04-08T12:22:26;98685.19;;;15.31
27826;BMP280;15077;49.704;9.908;2023-04-08T12:24:52;98683.94;;;15.38
27826;BMP280;15077;49.704;9.908;2023-04-08T12:27:18;98677.78;;;15.42
27826;BMP280;15077;49.704;9.908;2023-04-08T12:29:44;98681.69;;;15.49
27826;BMP280;15077;49.704;9.908;2023-04-08T12:32:11;98689.19;;;15.52
27826;BMP280;15077;49.704;9.908;2023-04-08T12:34:37;98681.97;;;15.59
27826;BMP280;15077;49.704;9.908;2023-04-08T12:37:02;98689.38;;;15.64
27826;BMP280;15077;49.704;9.908;2023-04-08T12:39:28;98685.00;;;15.66
27826;BMP280;15077;49.704;9.908;2023-04-08T12:41:54;98692.63;;;15.67
27826;BMP280;15077;49.704;9.908;2023-04-08T12:44:21;98694.41;;;15.65
27826;BMP280;15077;49.704;9.908;2023-04-08T12:46:47;98681.81;;;15.62
27826;BMP280;15077;49.704;9.908;2023-04-08T12:49:12;98683.53;;;15.62
27826;BMP280;15077;49.704;9.908;2023-04-08T12:51:38;98693.91;;;15.59
27826;BMP280;15077;49.704;9.908;2023-04-08T12:54:05;98689.78;;;15.56
27826;BMP280;15077;49.704;9.908;2023-04-08T12:56:31;98690.75;;;15.54
27826;BMP280;15077;49.704;9.908;2023-04-08T12:58:58;98694.31;;;15.52
27826;BMP280;15077;49.704;9.908;2023-04-08T13:01:24;98691.06;;;15.48
27826;BMP280;15077;49.704;9.908;2023-04-08T13:03:49;98693.69;;;15.47
27826;BMP280;15077;49.704;9.908;2023-04-08T13:06:15;98685.28;;;15.45
27826;BMP280;15077;49.704;9.908;2023-04-08T13:08:41;98685.28;;;15.45
27826;BMP280;15077;49.704;9.908;2023-04-08T13:11:07;98695.50;;;15.45
27826;BMP280;15077;49.704;9.908;2023-04-08T13:13:33;98692.16;;;15.44
27826;BMP280;15077;49.704;9.908;2023-04-08T13:15:59;98684.47;;;15.44
27826;BMP280;15077;49.704;9.908;2023-04-08T13:18:25;98685.28;;;15.45
27826;BMP280;15077;49.704;9.908;2023-04-08T13:20:51;98690.47;;;15.43
27826;BMP280;15077;49.704;9.908;2023-04-08T13:23:19;98693.13;;;15.42
27826;BMP280;15077;49.704;9.908;2023-04-08T13:25:45;98688.00;;;15.42
27826;BMP280;15077;49.704;9.908;2023-04-08T13:28:11;98682.91;;;15.42
27826;BMP280;15077;49.704;9.908;2023-04-08T13:30:37;98688.75;;;15.44
27826;BMP280;15077;49.704;9.908;2023-04-08T13:33:03;98691.22;;;15.45
27826;BMP280;15077;49.704;9.908;2023-04-08T13:35:29;98692.06;;;15.46
27826;BMP280;15077;49.704;9.908;2023-04-08T13:37:55;98689.34;;;15.49
27826;BMP280;15077;49.704;9.908;2023-04-08T13:40:21;98685.81;;;15.51
27826;BMP280;15077;49.704;9.908;2023-04-08T13:42:47;98682.19;;;15.55
27826;BMP280;15077;49.704;9.908;2023-04-08T13:45:13;98676.13;;;15.57
27826;BMP280;15077;49.704;9.908;2023-04-08T13:47:39;98685.25;;;15.61
27826;BMP280;15077;49.704;9.908;2023-04-08T13:50:06;98681.56;;;15.67
27826;BMP280;15077;49.704;9.908;2023-04-08T13:52:32;98685.69;;;15.69
27826;BMP280;15077;49.704;9.908;2023-04-08T13:54:58;98680.44;;;15.72
27826;BMP280;15077;49.704;9.908;2023-04-08T13:57:24;98675.91;;;15.77
27826;BMP280;15077;49.704;9.908;2023-04-08T13:59:49;98676.66;;;15.79
27826;BMP280;15077;49.704;9.908;2023-04-08T14:02:15;98678.13;;;15.83
27826;BMP280;15077;49.704;9.908;2023-04-08T14:04:41;98680.69;;;15.83
27826;BMP280;15077;49.704;9.908;2023-04-08T14:07:09;98688.19;;;15.86
27826;BMP280;15077;49.704;9.908;2023-04-08T14:09:34;98680.53;;;15.86
27826;BMP280;15077;49.704;9.908;2023-04-08T14:12:00;98685.56;;;15.88
27826;BMP280;15077;49.704;9.908;2023-04-08T14:14:26;98682.94;;;15.89
27826;BMP280;15077;49.704;9.908;2023-04-08T14:16:52;98681.13;;;15.91
27826;BMP280;15077;49.704;9.908;2023-04-08T14:19:18;98677.66;;;15.92
27826;BMP280;15077;49.704;9.908;2023-04-08T14:21:43;98686.09;;;15.94
27826;BMP280;15077;49.704;9.908;2023-04-08T14:24:09;98673.22;;;15.96
27826;BMP280;15077;49.704;9.908;2023-04-08T14:26:35;98678.34;;;15.96
27826;BMP280;15077;49.704;9.908;2023-04-08T14:29:03;98679.16;;;15.96
27826;BMP280;15077;49.704;9.908;2023-04-08T14:31:29;98676.59;;;15.96
27826;BMP280;15077;49.704;9.908;2023-04-08T14:33:56;98678.25;;;15.97